Monday, December 18, 2017, 4:08 PM CST
Back to Local

KDDC, Dodge City Regional Airport

Location: Dodge City, KS, United States Lat: 37.767
Local Time: 4:08 PM CST (22:08 GMT) Lon: -99.967
Time Zone: US/Central Elev: 2595 ft

Show me the last for .
Show Decoded

2017-12-18 15:52 METAR KDDC 182152Z AUTO 22015KT 9SM CLR 14/M03 A2994 RMK AO2 SLP141 T01441033 =
2017-12-18 14:52 METAR KDDC 182052Z AUTO 24008KT 9SM CLR 14/M04 A2995 RMK AO2 SLP149 T01391039
                 58026 =
2017-12-18 13:52 METAR KDDC 181952Z AUTO 23013G19KT 8SM CLR 12/M02 A2998 RMK AO2 SLP161 T01221022
                 =
2017-12-18 12:52 METAR KDDC 181852Z AUTO 21014KT 7SM CLR 11/M02 A3001 RMK AO2 SLP173 T01061017 =
2017-12-18 11:52 METAR KDDC 181752Z AUTO 20011KT 7SM CLR 09/M02 A3003 RMK AO2 SLP181 T00891022
                 10089 21061 58007 =
2017-12-18 10:52 METAR KDDC 181652Z AUTO 22009KT 7SM CLR 06/M02 A3005 RMK AO2 SLP190 T00561017 =
2017-12-18 09:52 METAR KDDC 181552Z AUTO 19005KT 6SM HZ CLR 01/M03 A3004 RMK AO2 SLP193 T00111028
                 =
2017-12-18 08:52 METAR KDDC 181452Z AUTO 20006KT 4SM BR CLR M03/M06 A3005 RMK AO2 SLP200
                 T10331056 50004 =
2017-12-18 07:52 METAR KDDC 181352Z AUTO 21006KT 5SM BR CLR M04/M07 A3008 RMK AO2 SLP209
                 T10441067 =
2017-12-18 06:52 METAR KDDC 181252Z AUTO 21007KT 6SM BR CLR M06/M08 A3006 RMK AO2 SLP204
                 T10561078 =
2017-12-18 05:52 METAR KDDC 181152Z AUTO 23004KT 7SM CLR M05/M07 A3004 RMK AO2 SLP193 T10501067
                 11017 21061 58002 =
2017-12-18 04:52 METAR KDDC 181052Z AUTO 22006KT 7SM CLR M06/M08 A3005 RMK AO2 SLP193 T10561078 =
2017-12-18 03:52 METAR KDDC 180952Z AUTO 22006KT 8SM CLR M03/M06 A3004 RMK AO2 SLP186 T10331061 =
2017-12-18 02:52 METAR KDDC 180852Z AUTO 23005KT 7SM CLR M05/M07 A3005 RMK AO2 SLP188 T10501067
                 55001 =
2017-12-18 01:52 METAR KDDC 180752Z AUTO 23007KT 7SM CLR M06/M08 A3004 RMK AO2 SLP187 T10561078 =
2017-12-18 00:52 METAR KDDC 180652Z AUTO 25003KT 8SM CLR M05/M07 A3004 RMK AO2 SLP188 T10501072 =
2017-12-17 23:52 METAR KDDC 180552Z AUTO 22004KT 8SM CLR M03/M06 A3005 RMK AO2 SLP190 T10331056
                 10011 21050 400831050 51007 =
2017-12-17 22:52 METAR KDDC 180452Z AUTO 29003KT 8SM CLR M03/M06 A3005 RMK AO2 SLP194 T10331061 =
2017-12-17 21:52 METAR KDDC 180352Z AUTO 30006KT 8SM CLR M03/M06 A3004 RMK AO2 SLP194 T10331061 =
2017-12-17 20:52 METAR KDDC 180252Z AUTO 31004KT 9SM CLR M02/M05 A3003 RMK AO2 SLP188 T10171050
                 51008 =
2017-12-17 19:52 METAR KDDC 180152Z AUTO 00000KT 9SM CLR M01/M05 A3002 RMK AO2 SLP188 T10111050 =
2017-12-17 18:52 METAR KDDC 180052Z AUTO 32004KT 10SM CLR M01/M06 A3002 RMK AO2 SLP186 T10111056
                 =
2017-12-17 17:52 METAR KDDC 172352Z AUTO 35003KT 10SM CLR 01/M04 A3000 RMK AO2 SLP175 T00111044
                 10083 20011 53011 =
2017-12-17 16:52 METAR KDDC 172252Z AUTO 03006KT 9SM CLR 06/M03 A2998 RMK AO2 SLP160 T00611028 =

Support USWX by starting your Amazon purchase here.